Time,TemperatureF,DewpointF,PressureIn,WindDirection,WindDirectionDegrees,WindSpeedMPH,WindSpeedGustMPH,Humidity,HourlyPrecipIn,Conditions,Clouds,dailyrainin,SoftwareType,DateUTC
2013-10-15 00:01:00,48.2,42.3,29.90,North,10,0.3,0.7,80,0.00,,,0.00,WUHU216HW,2013-10-15 07:01:00,
2013-10-15 00:06:00,48.2,42.3,29.90,NNW,338,0.0,0.7,80,0.00,,,0.00,WUHU216HW,2013-10-15 07:06:00,
2013-10-15 00:11:00,48.2,42.3,29.90,NNW,338,0.0,0.2,80,0.00,,,0.00,WUHU216HW,2013-10-15 07:11:00,
2013-10-15 00:16:00,47.9,41.9,29.90,NNW,338,0.4,0.4,80,0.00,,,0.00,WUHU216HW,2013-10-15 07:16:00,
2013-10-15 00:21:00,47.9,41.9,29.91,NNW,338,0.0,0.4,80,0.00,,,0.00,WUHU216HW,2013-10-15 07:21:00,
2013-10-15 00:26:00,47.7,41.9,29.90,NNW,338,0.0,0.2,80,0.00,,,0.00,WUHU216HW,2013-10-15 07:26:00,
2013-10-15 00:31:00,47.7,41.9,29.90,NNW,338,0.0,0.0,80,0.00,,,0.00,WUHU216HW,2013-10-15 07:31:00,
2013-10-15 00:36:00,47.5,41.7,29.90,NNW,338,0.0,0.0,80,0.00,,,0.00,WUHU216HW,2013-10-15 07:36:00,
2013-10-15 00:41:00,47.5,41.7,29.90,NNW,338,0.0,0.0,80,0.00,,,0.00,WUHU216HW,2013-10-15 07:41:00,
2013-10-15 00:46:00,47.2,41.3,29.90,NNW,338,0.0,0.0,80,0.00,,,0.00,WUHU216HW,2013-10-15 07:46:00,
2013-10-15 00:51:00,47.2,41.3,29.90,NE,45,0.4,0.4,80,0.00,,,0.00,WUHU216HW,2013-10-15 07:51:00,
2013-10-15 00:56:00,47.2,41.3,29.90,North,0,0.0,0.4,80,0.00,,,0.00,WUHU216HW,2013-10-15 07:56:00,
2013-10-15 01:01:00,47.0,41.1,29.90,North,0,0.0,0.2,80,0.00,,,0.00,WUHU216HW,2013-10-15 08:01:00,
2013-10-15 01:06:00,47.0,41.1,29.90,ENE,68,0.0,0.4,80,0.00,,,0.00,WUHU216HW,2013-10-15 08:06:00,
2013-10-15 01:11:00,46.8,41.3,29.90,ENE,68,0.0,0.4,81,0.00,,,0.00,WUHU216HW,2013-10-15 08:11:00,
2013-10-15 01:16:00,46.6,41.1,29.90,ENE,68,0.0,0.0,81,0.00,,,0.00,WUHU216HW,2013-10-15 08:16:00,
2013-10-15 01:21:00,46.6,41.1,29.89,ENE,68,0.0,0.0,81,0.00,,,0.00,WUHU216HW,2013-10-15 08:21:00,
2013-10-15 01:26:00,46.4,41.0,29.90,ENE,68,0.0,0.0,81,0.00,,,0.00,WUHU216HW,2013-10-15 08:26:00,
2013-10-15 01:31:00,46.4,41.0,29.90,ENE,68,0.0,0.0,81,0.00,,,0.00,WUHU216HW,2013-10-15 08:31:00,
2013-10-15 01:36:00,46.4,41.0,29.90,ENE,68,0.0,0.0,81,0.00,,,0.00,WUHU216HW,2013-10-15 08:36:00,
2013-10-15 01:41:00,46.4,41.0,29.89,NE,45,0.0,0.0,81,0.00,,,0.00,WUHU216HW,2013-10-15 08:41:00,
2013-10-15 01:46:00,46.4,41.0,29.90,NE,45,0.0,0.0,81,0.00,,,0.00,WUHU216HW,2013-10-15 08:46:00,
2013-10-15 01:50:00,46.4,41.0,29.90,SW,215,0.3,0.4,81,0.00,,,0.00,WUHU216HW,2013-10-15 08:50:00,
2013-10-15 01:55:00,46.4,41.0,29.90,WNW,293,0.0,0.4,81,0.00,,,0.00,WUHU216HW,2013-10-15 08:55:00,
2013-10-15 02:00:00,46.4,41.0,29.90,ENE,68,0.0,0.0,81,0.00,,,0.00,WUHU216HW,2013-10-15 09:00:00,
2013-10-15 02:05:00,46.4,41.0,29.90,ENE,68,0.0,0.0,81,0.00,,,0.00,WUHU216HW,2013-10-15 09:05:00,
2013-10-15 02:10:00,46.3,40.8,29.90,ENE,68,0.0,0.0,81,0.00,,,0.00,WUHU216HW,2013-10-15 09:10:00,
2013-10-15 02:15:00,46.3,40.8,29.90,NW,315,0.0,0.0,81,0.00,,,0.00,WUHU216HW,2013-10-15 09:15:00,
2013-10-15 02:20:00,46.1,40.6,29.90,NW,315,0.0,0.0,81,0.00,,,0.00,WUHU216HW,2013-10-15 09:20:00,
2013-10-15 02:25:00,46.1,40.6,29.90,NW,315,0.0,0.0,81,0.00,,,0.00,WUHU216HW,2013-10-15 09:25:00,
2013-10-15 02:30:00,46.1,40.6,29.90,West,268,0.3,0.7,81,0.00,,,0.00,WUHU216HW,2013-10-15 09:30:00,
2013-10-15 02:35:00,45.9,40.4,29.90,NNE,23,0.0,0.7,81,0.00,,,0.00,WUHU216HW,2013-10-15 09:35:00,
2013-10-15 02:40:00,45.7,40.2,29.90,NNE,23,0.0,0.2,81,0.00,,,0.00,WUHU216HW,2013-10-15 09:40:00,
2013-10-15 02:45:00,45.7,40.6,29.90,SE,135,0.2,0.9,82,0.00,,,0.00,WUHU216HW,2013-10-15 09:45:00,
2013-10-15 02:50:00,45.7,40.6,29.90,SE,135,0.0,0.9,82,0.00,,,0.00,WUHU216HW,2013-10-15 09:50:00,
2013-10-15 02:55:00,45.7,40.6,29.89,SE,135,0.2,0.2,82,0.00,,,0.00,WUHU216HW,2013-10-15 09:55:00,
2013-10-15 03:00:00,45.7,40.6,29.89,SE,135,0.0,0.7,82,0.00,,,0.00,WUHU216HW,2013-10-15 10:00:00,
2013-10-15 03:05:00,45.7,40.6,29.89,SE,135,0.0,0.7,82,0.00,,,0.00,WUHU216HW,2013-10-15 10:05:00,
2013-10-15 03:10:00,45.7,40.6,29.89,SE,135,0.0,0.0,82,0.00,,,0.00,WUHU216HW,2013-10-15 10:10:00,
2013-10-15 03:15:00,45.5,40.4,29.89,SE,135,0.0,0.0,82,0.00,,,0.00,WUHU216HW,2013-10-15 10:15:00,
2013-10-15 03:20:00,45.5,40.4,29.89,SSE,158,0.9,1.1,82,0.00,,,0.00,WUHU216HW,2013-10-15 10:20:00,
2013-10-15 03:25:00,45.7,40.6,29.89,SE,131,0.4,1.1,82,0.00,,,0.00,WUHU216HW,2013-10-15 10:25:00,
2013-10-15 03:30:00,45.7,40.6,29.89,ESE,120,0.3,1.1,82,0.00,,,0.00,WUHU216HW,2013-10-15 10:30:00,
2013-10-15 03:35:00,45.7,40.6,29.89,SE,135,0.4,0.7,82,0.00,,,0.00,WUHU216HW,2013-10-15 10:35:00,
2013-10-15 03:40:00,45.7,40.6,29.89,SE,135,0.4,0.7,82,0.00,,,0.00,WUHU216HW,2013-10-15 10:40:00,
2013-10-15 03:45:00,45.5,40.4,29.89,SE,135,0.0,0.4,82,0.00,,,0.00,WUHU216HW,2013-10-15 10:45:00,
2013-10-15 03:50:00,45.4,40.2,29.89,SE,135,0.0,0.0,82,0.00,,,0.00,WUHU216HW,2013-10-15 10:50:00,
2013-10-15 03:55:00,45.4,40.2,29.89,SE,135,0.0,0.0,82,0.00,,,0.00,WUHU216HW,2013-10-15 10:55:00,
2013-10-15 04:00:00,45.2,40.1,29.89,SE,135,0.0,0.0,82,0.00,,,0.00,WUHU216HW,2013-10-15 11:00:00,
2013-10-15 04:05:00,45.0,39.9,29.89,SE,135,0.0,0.0,82,0.00,,,0.00,WUHU216HW,2013-10-15 11:05:00,
2013-10-15 04:10:00,44.8,39.7,29.89,ESE,113,0.0,0.0,82,0.00,,,0.00,WUHU216HW,2013-10-15 11:10:00,
2013-10-15 04:15:00,44.6,39.5,29.89,ESE,113,0.0,0.0,82,0.00,,,0.00,WUHU216HW,2013-10-15 11:15:00,
2013-10-15 04:20:00,44.5,39.6,29.89,ESE,113,0.0,0.0,83,0.00,,,0.00,WUHU216HW,2013-10-15 11:20:00,
2013-10-15 04:25:00,44.3,39.4,29.89,NNE,23,0.0,0.0,83,0.00,,,0.00,WUHU216HW,2013-10-15 11:25:00,
2013-10-15 04:30:00,44.3,39.4,29.89,NNE,23,0.0,0.0,83,0.00,,,0.00,WUHU216HW,2013-10-15 11:30:00,
2013-10-15 04:35:00,44.1,39.2,29.89,NNE,23,0.0,0.0,83,0.00,,,0.00,WUHU216HW,2013-10-15 11:35:00,
2013-10-15 04:40:00,43.9,39.1,29.89,ENE,68,0.4,0.4,83,0.00,,,0.00,WUHU216HW,2013-10-15 11:40:00,
2013-10-15 04:45:00,43.9,39.1,29.89,North,0,0.0,0.4,83,0.00,,,0.00,WUHU216HW,2013-10-15 11:45:00,
2013-10-15 04:50:00,43.7,39.3,29.89,North,0,0.0,0.0,84,0.00,,,0.00,WUHU216HW,2013-10-15 11:50:00,
2013-10-15 04:55:00,43.7,39.3,29.88,ESE,113,0.0,0.0,84,0.00,,,0.00,WUHU216HW,2013-10-15 11:55:00,
2013-10-15 05:00:00,43.6,39.1,29.88,ESE,113,0.0,0.0,84,0.00,,,0.00,WUHU216HW,2013-10-15 12:00:00,
2013-10-15 05:05:00,43.6,39.1,29.88,ESE,113,0.0,0.0,84,0.00,,,0.00,WUHU216HW,2013-10-15 12:05:00,
2013-10-15 05:10:00,43.4,38.9,29.88,ESE,113,0.0,0.0,84,0.00,,,0.00,WUHU216HW,2013-10-15 12:10:00,
2013-10-15 05:15:00,43.4,38.9,29.88,ESE,113,0.0,0.0,84,0.00,,,0.00,WUHU216HW,2013-10-15 12:15:00,
2013-10-15 05:20:00,43.2,38.7,29.88,ESE,113,0.0,0.0,84,0.00,,,0.00,WUHU216HW,2013-10-15 12:20:00,
2013-10-15 05:25:00,43.0,38.5,29.88,ESE,113,0.0,0.0,84,0.00,,,0.00,WUHU216HW,2013-10-15 12:25:00,
2013-10-15 05:30:00,43.0,38.8,29.88,South,180,0.0,0.4,85,0.00,,,0.00,WUHU216HW,2013-10-15 12:30:00,
2013-10-15 05:35:00,43.0,38.8,29.88,South,180,0.0,0.4,85,0.00,,,0.00,WUHU216HW,2013-10-15 12:35:00,
2013-10-15 05:40:00,42.8,38.6,29.88,SSW,203,0.0,0.2,85,0.00,,,0.00,WUHU216HW,2013-10-15 12:40:00,
2013-10-15 05:45:00,43.0,38.8,29.88,ESE,113,0.7,0.7,85,0.00,,,0.00,WUHU216HW,2013-10-15 12:45:00,
2013-10-15 05:50:00,43.2,39.0,29.88,SE,135,0.7,2.5,85,0.00,,,0.00,WUHU216HW,2013-10-15 12:50:00,
2013-10-15 05:55:00,43.4,39.2,29.88,SSE,158,0.0,2.5,85,0.00,,,0.00,WUHU216HW,2013-10-15 12:55:00,
2013-10-15 06:00:00,43.6,39.3,29.88,SE,135,0.4,1.1,85,0.00,,,0.00,WUHU216HW,2013-10-15 13:00:00,
2013-10-15 06:05:00,43.7,39.5,29.88,North,0,0.0,1.1,85,0.00,,,0.00,WUHU216HW,2013-10-15 13:05:00,
2013-10-15 06:10:00,43.7,39.5,29.88,North,0,0.0,1.1,85,0.00,,,0.00,WUHU216HW,2013-10-15 13:10:00,
2013-10-15 06:15:00,43.6,39.3,29.88,NE,45,0.2,0.2,85,0.00,,,0.00,WUHU216HW,2013-10-15 13:15:00,
2013-10-15 06:20:00,43.6,39.3,29.88,SE,135,0.4,0.4,85,0.00,,,0.00,WUHU216HW,2013-10-15 13:20:00,
2013-10-15 06:25:00,43.6,39.1,29.88,SE,135,0.0,0.9,84,0.00,,,0.00,WUHU216HW,2013-10-15 13:25:00,
2013-10-15 06:30:00,43.6,39.3,29.88,SE,135,0.0,0.9,85,0.00,,,0.00,WUHU216HW,2013-10-15 13:30:00,
2013-10-15 06:35:00,43.6,39.1,29.88,SE,135,0.0,0.0,84,0.00,,,0.00,WUHU216HW,2013-10-15 13:35:00,
2013-10-15 06:40:00,43.6,39.3,29.88,ENE,68,0.4,0.4,85,0.00,,,0.00,WUHU216HW,2013-10-15 13:40:00,
2013-10-15 06:45:00,43.6,39.3,29.88,ENE,68,0.0,0.7,85,0.00,,,0.00,WUHU216HW,2013-10-15 13:45:00,
2013-10-15 06:50:00,43.6,39.3,29.88,SE,138,0.4,0.7,85,0.00,,,0.00,WUHU216HW,2013-10-15 13:50:00,
2013-10-15 06:55:00,43.6,39.3,29.88,NE,45,0.0,0.7,85,0.00,,,0.00,WUHU216HW,2013-10-15 13:55:00,
2013-10-15 07:00:00,43.6,39.3,29.88,East,90,0.0,0.4,85,0.00,,,0.00,WUHU216HW,2013-10-15 14:00:00,
2013-10-15 07:05:00,43.6,39.1,29.88,ENE,68,0.0,0.2,84,0.00,,,0.00,WUHU216HW,2013-10-15 14:05:00,
2013-10-15 07:10:00,43.6,39.1,29.89,ENE,68,0.0,0.2,84,0.00,,,0.00,WUHU216HW,2013-10-15 14:10:00,
2013-10-15 07:15:00,43.4,38.9,29.89,ENE,68,0.0,0.0,84,0.00,,,0.00,WUHU216HW,2013-10-15 14:15:00,
2013-10-15 07:20:00,43.2,38.7,29.89,ENE,68,0.2,0.2,84,0.00,,,0.00,WUHU216HW,2013-10-15 14:20:00,
2013-10-15 07:25:00,43.2,38.7,29.89,ENE,68,0.0,0.2,84,0.00,,,0.00,WUHU216HW,2013-10-15 14:25:00,
2013-10-15 07:30:00,43.0,38.5,29.89,ENE,68,0.0,0.2,84,0.00,,,0.00,WUHU216HW,2013-10-15 14:30:00,
2013-10-15 07:35:00,42.8,38.6,29.89,ENE,68,0.0,0.0,85,0.00,,,0.00,WUHU216HW,2013-10-15 14:35:00,
2013-10-15 07:40:00,42.8,38.6,29.89,ENE,68,0.0,0.0,85,0.00,,,0.00,WUHU216HW,2013-10-15 14:40:00,
2013-10-15 07:45:00,42.8,38.4,29.89,ENE,68,0.0,0.0,84,0.00,,,0.00,WUHU216HW,2013-10-15 14:45:00,
2013-10-15 07:50:00,43.0,38.8,29.89,ENE,68,0.0,0.0,85,0.00,,,0.00,WUHU216HW,2013-10-15 14:50:00,
2013-10-15 07:55:00,43.2,39.0,29.89,ENE,68,0.0,0.0,85,0.00,,,0.00,WUHU216HW,2013-10-15 14:55:00,
2013-10-15 08:00:00,43.6,39.3,29.89,ENE,68,0.0,0.0,85,0.00,,,0.00,WUHU216HW,2013-10-15 15:00:00,
2013-10-15 08:05:00,44.1,39.9,29.89,ENE,68,0.0,0.0,85,0.00,,,0.00,WUHU216HW,2013-10-15 15:05:00,
2013-10-15 08:10:00,45.0,40.8,29.89,ENE,68,0.0,0.4,85,0.00,,,0.00,WUHU216HW,2013-10-15 15:10:00,
2013-10-15 08:15:00,46.3,42.0,29.89,ENE,68,0.0,0.4,85,0.00,,,0.00,WUHU216HW,2013-10-15 15:15:00,
2013-10-15 08:20:00,47.7,43.1,29.89,ENE,68,0.2,0.2,84,0.00,,,0.00,WUHU216HW,2013-10-15 15:20:00,
2013-10-15 08:25:00,48.8,43.8,29.89,ENE,68,0.0,0.2,83,0.00,,,0.00,WUHU216HW,2013-10-15 15:25:00,
2013-10-15 08:30:00,50.0,44.7,29.89,SE,135,0.0,0.7,82,0.00,,,0.00,WUHU216HW,2013-10-15 15:30:00,
2013-10-15 08:35:00,50.8,44.8,29.89,SE,135,0.0,0.7,80,0.00,,,0.00,WUHU216HW,2013-10-15 15:35:00,
2013-10-15 08:40:00,51.5,45.2,29.89,SE,135,0.0,0.0,79,0.00,,,0.00,WUHU216HW,2013-10-15 15:40:00,
2013-10-15 08:45:00,52.6,45.9,29.89,NNE,13,0.3,1.6,78,0.00,,,0.00,WUHU216HW,2013-10-15 15:45:00,
2013-10-15 08:50:00,53.6,46.6,29.89,South,180,0.7,1.6,77,0.00,,,0.00,WUHU216HW,2013-10-15 15:50:00,
2013-10-15 08:55:00,54.9,47.4,29.89,ENE,68,0.4,0.9,76,0.00,,,0.00,WUHU216HW,2013-10-15 15:55:00,
2013-10-15 09:00:00,56.2,48.0,29.89,ESE,123,0.9,1.1,74,0.00,,,0.00,WUHU216HW,2013-10-15 16:00:00,
2013-10-15 09:05:00,57.2,48.6,29.89,East,90,0.4,1.1,73,0.00,,,0.00,WUHU216HW,2013-10-15 16:05:00,
2013-10-15 09:10:00,57.8,48.4,29.89,East,80,0.6,1.1,71,0.00,,,0.00,WUHU216HW,2013-10-15 16:10:00,
2013-10-15 09:15:00,58.1,48.4,29.89,WSW,248,0.9,1.1,70,0.00,,,0.00,WUHU216HW,2013-10-15 16:15:00,
2013-10-15 09:20:00,58.0,47.4,29.89,ENE,68,1.1,1.8,68,0.00,,,0.00,WUHU216HW,2013-10-15 16:20:00,
2013-10-15 09:25:00,58.7,48.2,29.88,ESE,113,0.2,1.8,68,0.00,,,0.00,WUHU216HW,2013-10-15 16:25:00,
2013-10-15 09:30:00,59.6,48.3,29.89,East,85,1.2,2.9,66,0.00,,,0.00,WUHU216HW,2013-10-15 16:30:00,
2013-10-15 09:35:00,59.4,47.2,29.89,SSW,211,0.4,2.9,64,0.00,,,0.00,WUHU216HW,2013-10-15 16:35:00,
2013-10-15 09:40:00,59.4,47.2,29.88,NW,315,2.0,2.0,64,0.00,,,0.00,WUHU216HW,2013-10-15 16:40:00,
2013-10-15 09:45:00,59.4,46.4,29.88,WSW,248,1.8,2.2,62,0.00,,,0.00,WUHU216HW,2013-10-15 16:45:00,
2013-10-15 09:50:00,59.2,46.2,29.88,SE,127,0.6,3.4,62,0.00,,,0.00,WUHU216HW,2013-10-15 16:50:00,
2013-10-15 09:55:00,59.4,46.4,29.88,NNW,346,0.4,3.4,62,0.00,,,0.00,WUHU216HW,2013-10-15 16:55:00,
2013-10-15 10:00:00,59.2,46.2,29.88,SSE,148,1.0,2.2,62,0.00,,,0.00,WUHU216HW,2013-10-15 17:00:00,
2013-10-15 10:05:00,59.4,46.4,29.88,WSW,248,0.7,3.4,62,0.00,,,0.00,WUHU216HW,2013-10-15 17:05:00,
2013-10-15 10:10:00,59.4,46.0,29.88,ENE,72,1.2,3.4,61,0.00,,,0.00,WUHU216HW,2013-10-15 17:10:00,
2013-10-15 10:15:00,59.2,46.2,29.88,NNW,338,0.7,2.5,62,0.00,,,0.00,WUHU216HW,2013-10-15 17:15:00,
2013-10-15 10:20:00,59.4,46.4,29.88,ESE,117,0.9,2.5,62,0.00,,,0.00,WUHU216HW,2013-10-15 17:20:00,
2013-10-15 10:25:00,59.9,46.9,29.88,ENE,68,2.0,2.0,62,0.00,,,0.00,WUHU216HW,2013-10-15 17:25:00,
2013-10-15 10:30:00,60.7,48.1,29.88,North,0,1.6,4.0,63,0.00,,,0.00,WUHU216HW,2013-10-15 17:30:00,
2013-10-15 10:35:00,60.8,47.8,29.88,NNW,338,2.5,4.0,62,0.00,,,0.00,WUHU216HW,2013-10-15 17:35:00,
2013-10-15 10:40:00,60.7,47.3,29.88,NE,45,2.5,2.9,61,0.00,,,0.00,WUHU216HW,2013-10-15 17:40:00,
2013-10-15 10:45:00,60.8,47.0,29.88,SE,137,0.8,2.9,60,0.00,,,0.00,WUHU216HW,2013-10-15 17:45:00,
2013-10-15 10:50:00,60.7,46.4,29.88,ESE,113,0.8,3.1,59,0.00,,,0.00,WUHU216HW,2013-10-15 17:50:00,
2013-10-15 10:55:00,60.7,46.8,29.88,WSW,258,1.6,3.1,60,0.00,,,0.00,WUHU216HW,2013-10-15 17:55:00,
2013-10-15 11:00:00,60.8,47.0,29.87,ENE,67,2.1,3.1,60,0.00,,,0.00,WUHU216HW,2013-10-15 18:00:00,
2013-10-15 11:05:00,60.7,46.4,29.87,North,354,1.3,3.4,59,0.00,,,0.00,WUHU216HW,2013-10-15 18:05:00,
2013-10-15 11:10:00,60.7,46.4,29.87,ENE,75,1.3,3.4,59,0.00,,,0.00,WUHU216HW,2013-10-15 18:10:00,
2013-10-15 11:15:00,60.7,45.8,29.87,ENE,72,1.8,2.9,58,0.00,,,0.00,WUHU216HW,2013-10-15 18:15:00,
2013-10-15 11:20:00,60.5,45.6,29.87,East,90,3.4,3.4,58,0.00,,,0.00,WUHU216HW,2013-10-15 18:20:00,
2013-10-15 11:25:00,60.5,46.2,29.87,SSW,203,0.9,4.3,59,0.00,,,0.00,WUHU216HW,2013-10-15 18:25:00,
2013-10-15 11:30:00,61.0,46.6,29.87,ENE,67,1.3,4.3,59,0.00,,,0.00,WUHU216HW,2013-10-15 18:30:00,
2013-10-15 11:35:00,61.0,46.2,29.87,NW,315,1.6,4.7,58,0.00,,,0.00,WUHU216HW,2013-10-15 18:35:00,
2013-10-15 11:40:00,61.2,46.8,29.87,East,90,3.1,4.7,59,0.00,,,0.00,WUHU216HW,2013-10-15 18:40:00,
2013-10-15 11:45:00,61.4,47.0,29.87,ENE,65,1.2,3.1,59,0.00,,,0.00,WUHU216HW,2013-10-15 18:45:00,
2013-10-15 11:50:00,61.6,46.6,29.86,North,0,1.1,3.4,58,0.00,,,0.00,WUHU216HW,2013-10-15 18:50:00,
2013-10-15 11:55:00,61.7,46.8,29.86,East,101,3.1,4.7,58,0.00,,,0.00,WUHU216HW,2013-10-15 18:55:00,
2013-10-15 12:00:00,61.6,46.6,29.86,ESE,110,1.8,4.7,58,0.00,,,0.00,WUHU216HW,2013-10-15 19:00:00,
2013-10-15 12:05:00,61.6,46.2,29.86,East,91,2.3,3.8,57,0.00,,,0.00,WUHU216HW,2013-10-15 19:05:00,
2013-10-15 12:10:00,61.6,46.2,29.86,ESE,110,2.5,3.8,57,0.00,,,0.00,WUHU216HW,2013-10-15 19:10:00,
2013-10-15 12:15:00,61.6,46.2,29.86,ESE,102,1.8,4.0,57,0.00,,,0.00,WUHU216HW,2013-10-15 19:15:00,
2013-10-15 12:20:00,61.9,46.5,29.86,ESE,123,2.1,4.0,57,0.00,,,0.00,WUHU216HW,2013-10-15 19:20:00,
2013-10-15 12:25:00,62.1,46.6,29.86,ESE,113,1.3,3.4,57,0.00,,,0.00,WUHU216HW,2013-10-15 19:25:00,
2013-10-15 12:30:00,62.3,46.8,29.85,ENE,59,1.4,2.9,57,0.00,,,0.00,WUHU216HW,2013-10-15 19:30:00,
2013-10-15 12:35:00,62.5,46.5,29.85,SSW,204,0.9,4.5,56,0.00,,,0.00,WUHU216HW,2013-10-15 19:35:00,
2013-10-15 12:39:00,62.6,46.6,29.85,South,183,0.7,4.5,56,0.00,,,0.00,WUHU216HW,2013-10-15 19:39:00,
2013-10-15 12:44:00,63.0,47.0,29.85,NE,43,1.3,3.4,56,0.00,,,0.00,WUHU216HW,2013-10-15 19:44:00,
2013-10-15 12:50:00,62.8,46.4,29.84,SSW,207,1.4,2.5,55,0.00,,,0.00,WUHU216HW,2013-10-15 19:50:00,
2013-10-15 12:55:00,63.0,46.5,29.84,SE,144,1.1,2.9,55,0.00,,,0.00,WUHU216HW,2013-10-15 19:55:00,
2013-10-15 13:00:00,63.0,46.5,29.84,East,90,3.1,3.1,55,0.00,,,0.00,WUHU216HW,2013-10-15 20:00:00,
2013-10-15 13:05:00,63.2,46.6,29.83,SSW,203,1.1,4.0,55,0.00,,,0.00,WUHU216HW,2013-10-15 20:05:00,
2013-10-15 13:10:00,63.5,47.0,29.83,SE,135,1.3,4.0,55,0.00,,,0.00,WUHU216HW,2013-10-15 20:10:00,
2013-10-15 13:15:00,63.4,45.4,29.83,WNW,303,2.4,4.0,52,0.00,,,0.00,WUHU216HW,2013-10-15 20:15:00,
2013-10-15 13:20:00,63.4,45.8,29.83,ESE,109,1.4,4.0,53,0.00,,,0.00,WUHU216HW,2013-10-15 20:20:00,
2013-10-15 13:25:00,63.5,45.6,29.82,SE,135,2.7,2.7,52,0.00,,,0.00,WUHU216HW,2013-10-15 20:25:00,
2013-10-15 13:30:00,63.7,45.7,29.82,SE,128,1.4,3.6,52,0.00,,,0.00,WUHU216HW,2013-10-15 20:30:00,
2013-10-15 13:35:00,63.7,45.7,29.82,ESE,113,2.9,3.6,52,0.00,,,0.00,WUHU216HW,2013-10-15 20:35:00,
2013-10-15 13:40:00,63.9,46.4,29.82,ENE,77,1.2,3.6,53,0.00,,,0.00,WUHU216HW,2013-10-15 20:40:00,
2013-10-15 13:45:00,64.3,46.2,29.82,West,270,2.2,3.4,52,0.00,,,0.00,WUHU216HW,2013-10-15 20:45:00,
2013-10-15 13:50:00,64.3,46.2,29.81,ENE,68,4.9,4.9,52,0.00,,,0.00,WUHU216HW,2013-10-15 20:50:00,
2013-10-15 13:55:00,64.4,46.4,29.81,ENE,61,1.3,4.9,52,0.00,,,0.00,WUHU216HW,2013-10-15 20:55:00,
2013-10-15 14:00:00,64.4,46.4,29.81,ESE,113,2.0,4.5,52,0.00,,,0.00,WUHU216HW,2013-10-15 21:00:00,
2013-10-15 14:05:00,64.6,46.5,29.81,SSW,197,1.8,2.5,52,0.00,,,0.00,WUHU216HW,2013-10-15 21:05:00,
2013-10-15 14:10:00,64.4,45.8,29.81,WSW,248,3.8,3.8,51,0.00,,,0.00,WUHU216HW,2013-10-15 21:10:00,
2013-10-15 14:14:00,64.4,45.8,29.81,SE,136,0.9,3.8,51,0.00,,,0.00,WUHU216HW,2013-10-15 21:14:00,
2013-10-15 14:19:00,64.6,46.5,29.80,NW,318,1.3,3.1,52,0.00,,,0.00,WUHU216HW,2013-10-15 21:19:00,
2013-10-15 14:24:00,64.8,45.7,29.80,East,90,2.0,3.1,50,0.00,,,0.00,WUHU216HW,2013-10-15 21:24:00,
2013-10-15 14:29:00,64.8,46.2,29.80,ENE,75,1.6,3.1,51,0.00,,,0.00,WUHU216HW,2013-10-15 21:29:00,
2013-10-15 14:34:00,65.2,46.5,29.79,NW,315,3.4,3.4,51,0.00,,,0.00,WUHU216HW,2013-10-15 21:34:00,
2013-10-15 14:39:00,65.2,46.5,29.79,NW,315,4.0,4.0,51,0.00,,,0.00,WUHU216HW,2013-10-15 21:39:00,
2013-10-15 14:44:00,65.2,46.5,29.79,ESE,116,1.2,4.0,51,0.00,,,0.00,WUHU216HW,2013-10-15 21:44:00,
2013-10-15 14:49:00,65.2,46.1,29.79,WSW,249,1.3,4.0,50,0.00,,,0.00,WUHU216HW,2013-10-15 21:49:00,
2013-10-15 14:54:00,65.3,46.3,29.79,SW,236,1.6,3.8,50,0.00,,,0.00,WUHU216HW,2013-10-15 21:54:00,
2013-10-15 14:59:00,65.3,46.3,29.79,West,272,0.9,3.8,50,0.00,,,0.00,WUHU216HW,2013-10-15 21:59:00,
2013-10-15 15:04:00,65.5,46.4,29.78,NE,45,1.8,4.0,50,0.00,,,0.00,WUHU216HW,2013-10-15 22:04:00,
2013-10-15 15:09:00,65.5,46.4,29.78,NNW,339,1.6,4.0,50,0.00,,,0.00,WUHU216HW,2013-10-15 22:09:00,
2013-10-15 15:14:00,65.5,46.4,29.78,East,82,1.8,3.6,50,0.00,,,0.00,WUHU216HW,2013-10-15 22:14:00,
2013-10-15 15:19:00,65.5,46.4,29.78,ESE,114,1.3,3.6,50,0.00,,,0.00,WUHU216HW,2013-10-15 22:19:00,
2013-10-15 15:24:00,65.7,46.6,29.78,East,87,2.1,2.9,50,0.00,,,0.00,WUHU216HW,2013-10-15 22:24:00,
2013-10-15 15:29:00,65.7,46.6,29.78,ESE,103,1.4,2.9,50,0.00,,,0.00,WUHU216HW,2013-10-15 22:29:00,
2013-10-15 15:34:00,65.7,46.6,29.78,East,81,1.1,2.7,50,0.00,,,0.00,WUHU216HW,2013-10-15 22:34:00,
2013-10-15 15:39:00,65.9,46.2,29.78,SSW,211,0.8,2.5,49,0.00,,,0.00,WUHU216HW,2013-10-15 22:39:00,
2013-10-15 15:44:00,65.9,46.2,29.78,West,270,0.9,2.5,49,0.00,,,0.00,WUHU216HW,2013-10-15 22:44:00,
2013-10-15 15:49:00,65.9,46.2,29.78,North,0,1.8,2.9,49,0.00,,,0.00,WUHU216HW,2013-10-15 22:49:00,
2013-10-15 15:54:00,65.7,46.0,29.78,East,94,0.5,2.9,49,0.00,,,0.00,WUHU216HW,2013-10-15 22:54:00,
2013-10-15 15:59:00,65.7,45.5,29.77,SE,135,1.1,2.7,48,0.00,,,0.00,WUHU216HW,2013-10-15 22:59:00,
2013-10-15 16:04:00,65.7,45.5,29.77,SW,216,1.4,2.7,48,0.00,,,0.00,WUHU216HW,2013-10-15 23:04:00,
2013-10-15 16:09:00,65.7,46.0,29.77,East,90,1.8,2.5,49,0.00,,,0.00,WUHU216HW,2013-10-15 23:09:00,
2013-10-15 16:14:00,65.9,46.2,29.77,NE,53,1.9,3.4,49,0.00,,,0.00,WUHU216HW,2013-10-15 23:14:00,
2013-10-15 16:19:00,65.9,45.6,29.77,SE,130,1.5,3.4,48,0.00,,,0.00,WUHU216HW,2013-10-15 23:19:00,
2013-10-15 16:24:00,65.7,46.0,29.77,SSE,151,1.3,3.4,49,0.00,,,0.00,WUHU216HW,2013-10-15 23:24:00,
2013-10-15 16:29:00,65.7,45.5,29.77,ESE,102,1.5,3.4,48,0.00,,,0.00,WUHU216HW,2013-10-15 23:29:00,
2013-10-15 16:34:00,65.7,46.0,29.77,SSE,158,2.2,2.7,49,0.00,,,0.00,WUHU216HW,2013-10-15 23:34:00,
2013-10-15 16:39:00,65.9,45.6,29.77,East,90,2.5,2.9,48,0.00,,,0.00,WUHU216HW,2013-10-15 23:39:00,
2013-10-15 16:44:00,65.9,46.2,29.76,East,90,1.1,2.9,49,0.00,,,0.00,WUHU216HW,2013-10-15 23:44:00,
2013-10-15 16:49:00,65.7,45.5,29.76,East,90,1.1,2.9,48,0.00,,,0.00,WUHU216HW,2013-10-15 23:49:00,
2013-10-15 16:54:00,65.5,45.3,29.76,East,96,1.1,2.9,48,0.00,,,0.00,WUHU216HW,2013-10-15 23:54:00,
2013-10-15 16:59:00,65.3,45.7,29.76,East,90,0.7,2.5,49,0.00,,,0.00,WUHU216HW,2013-10-15 23:59:00,
2013-10-15 17:04:00,65.3,45.7,29.76,ENE,68,1.1,1.6,49,0.00,,,0.00,WUHU216HW,2013-10-16 00:04:00,
2013-10-15 17:09:00,65.2,45.6,29.76,SE,135,1.3,1.6,49,0.00,,,0.00,WUHU216HW,2013-10-16 00:09:00,
2013-10-15 17:14:00,65.2,45.6,29.76,SE,135,1.1,1.6,49,0.00,,,0.00,WUHU216HW,2013-10-16 00:14:00,
2013-10-15 17:19:00,65.0,45.4,29.76,ESE,113,0.7,1.8,49,0.00,,,0.00,WUHU216HW,2013-10-16 00:19:00,
2013-10-15 17:24:00,64.8,45.2,29.76,NE,46,0.8,1.8,49,0.00,,,0.00,WUHU216HW,2013-10-16 00:24:00,
2013-10-15 17:29:00,64.4,45.4,29.76,ENE,68,0.0,1.1,50,0.00,,,0.00,WUHU216HW,2013-10-16 00:29:00,
2013-10-15 17:34:00,64.1,45.0,29.76,ESE,115,0.6,0.9,50,0.00,,,0.00,WUHU216HW,2013-10-16 00:34:00,
2013-10-15 17:39:00,63.9,45.4,29.76,SE,135,0.2,0.9,51,0.00,,,0.00,WUHU216HW,2013-10-16 00:39:00,
2013-10-15 17:44:00,63.4,44.9,29.76,SE,135,0.0,0.4,51,0.00,,,0.00,WUHU216HW,2013-10-16 00:44:00,
2013-10-15 17:49:00,63.0,45.0,29.75,SE,135,0.0,0.0,52,0.00,,,0.00,WUHU216HW,2013-10-16 00:49:00,
2013-10-15 17:54:00,62.5,45.0,29.75,SE,135,0.0,0.0,53,0.00,,,0.00,WUHU216HW,2013-10-16 00:54:00,
2013-10-15 17:59:00,61.9,45.0,29.75,SE,135,0.0,0.0,54,0.00,,,0.00,WUHU216HW,2013-10-16 00:59:00,
2013-10-15 18:04:00,61.6,45.2,29.75,SE,135,0.0,0.0,55,0.00,,,0.00,WUHU216HW,2013-10-16 01:04:00,
2013-10-15 18:09:00,61.0,44.7,29.75,SE,135,0.0,0.0,55,0.00,,,0.00,WUHU216HW,2013-10-16 01:09:00,
2013-10-15 18:14:00,60.8,45.0,29.75,SE,135,0.0,0.0,56,0.00,,,0.00,WUHU216HW,2013-10-16 01:14:00,
2013-10-15 18:19:00,60.3,45.0,29.75,SE,135,0.0,0.0,57,0.00,,,0.00,WUHU216HW,2013-10-16 01:19:00,
2013-10-15 18:24:00,59.9,45.1,29.75,SE,135,0.0,0.0,58,0.00,,,0.00,WUHU216HW,2013-10-16 01:24:00,
2013-10-15 18:29:00,59.4,44.7,29.75,SE,135,0.0,0.0,58,0.00,,,0.00,WUHU216HW,2013-10-16 01:29:00,
2013-10-15 18:34:00,59.0,44.7,29.75,SE,135,0.0,0.0,59,0.00,,,0.00,WUHU216HW,2013-10-16 01:34:00,
2013-10-15 18:39:00,58.5,44.2,29.75,SE,135,0.0,0.0,59,0.00,,,0.00,WUHU216HW,2013-10-16 01:39:00,
2013-10-15 18:44:00,58.0,43.7,29.74,SE,135,0.0,0.0,59,0.00,,,0.00,WUHU216HW,2013-10-16 01:44:00,
2013-10-15 18:49:00,57.6,43.9,29.74,SE,135,0.0,0.0,60,0.00,,,0.00,WUHU216HW,2013-10-16 01:49:00,
2013-10-15 18:54:00,57.2,43.9,29.74,SE,135,0.0,0.0,61,0.00,,,0.00,WUHU216HW,2013-10-16 01:54:00,
2013-10-15 18:59:00,56.9,43.6,29.74,SE,135,0.0,0.0,61,0.00,,,0.00,WUHU216HW,2013-10-16 01:59:00,
2013-10-15 19:04:00,56.5,43.7,29.74,SE,135,0.0,0.0,62,0.00,,,0.00,WUHU216HW,2013-10-16 02:04:00,
2013-10-15 19:09:00,56.0,43.1,29.74,SE,135,0.0,0.0,62,0.00,,,0.00,WUHU216HW,2013-10-16 02:09:00,
2013-10-15 19:14:00,55.8,43.4,29.74,SE,135,0.0,0.0,63,0.00,,,0.00,WUHU216HW,2013-10-16 02:14:00,
2013-10-15 19:19:00,55.4,43.0,29.74,SE,135,0.0,0.0,63,0.00,,,0.00,WUHU216HW,2013-10-16 02:19:00,
2013-10-15 19:24:00,55.3,43.3,29.74,SE,135,0.0,0.0,64,0.00,,,0.00,WUHU216HW,2013-10-16 02:24:00,
2013-10-15 19:29:00,54.9,42.9,29.74,SE,135,0.0,0.0,64,0.00,,,0.00,WUHU216HW,2013-10-16 02:29:00,
2013-10-15 19:34:00,54.5,42.6,29.74,SE,135,0.0,0.0,64,0.00,,,0.00,WUHU216HW,2013-10-16 02:34:00,
2013-10-15 19:39:00,54.4,42.4,29.74,SE,135,0.0,0.0,64,0.00,,,0.00,WUHU216HW,2013-10-16 02:39:00,
2013-10-15 19:44:00,54.2,42.7,29.74,SE,135,0.0,0.0,65,0.00,,,0.00,WUHU216HW,2013-10-16 02:44:00,
2013-10-15 19:49:00,53.8,42.3,29.74,SE,135,0.0,0.0,65,0.00,,,0.00,WUHU216HW,2013-10-16 02:49:00,
2013-10-15 19:54:00,53.6,42.5,29.74,SE,135,0.0,0.4,66,0.00,,,0.00,WUHU216HW,2013-10-16 02:54:00,
2013-10-15 19:59:00,53.3,42.2,29.74,SE,135,0.0,0.4,66,0.00,,,0.00,WUHU216HW,2013-10-16 02:59:00,
2013-10-15 20:04:00,53.1,42.4,29.74,NNW,338,0.0,0.0,67,0.00,,,0.00,WUHU216HW,2013-10-16 03:04:00,
2013-10-15 20:09:00,52.9,42.2,29.73,NNW,338,0.0,0.0,67,0.00,,,0.00,WUHU216HW,2013-10-16 03:09:00,
2013-10-15 20:14:00,52.7,42.5,29.74,NNW,338,0.0,0.0,68,0.00,,,0.00,WUHU216HW,2013-10-16 03:14:00,
2013-10-15 20:19:00,52.6,42.3,29.73,NNW,338,0.4,0.4,68,0.00,,,0.00,WUHU216HW,2013-10-16 03:19:00,
2013-10-15 20:24:00,52.2,41.9,29.74,NNW,338,0.0,0.4,68,0.00,,,0.00,WUHU216HW,2013-10-16 03:24:00,
2013-10-15 20:29:00,52.2,42.4,29.74,NNE,22,0.5,0.9,69,0.00,,,0.00,WUHU216HW,2013-10-16 03:29:00,
2013-10-15 20:34:00,52.0,42.2,29.74,NE,45,0.0,0.9,69,0.00,,,0.00,WUHU216HW,2013-10-16 03:34:00,
2013-10-15 20:39:00,51.8,41.7,29.73,NE,45,0.0,0.0,68,0.00,,,0.00,WUHU216HW,2013-10-16 03:39:00,
2013-10-15 20:44:00,51.8,41.7,29.73,NE,45,0.0,0.0,68,0.00,,,0.00,WUHU216HW,2013-10-16 03:44:00,
2013-10-15 20:49:00,51.8,41.7,29.74,North,0,0.0,0.0,68,0.00,,,0.00,WUHU216HW,2013-10-16 03:49:00,
2013-10-15 20:54:00,51.7,41.5,29.73,North,0,0.0,0.0,68,0.00,,,0.00,WUHU216HW,2013-10-16 03:54:00,
2013-10-15 20:59:00,51.7,41.5,29.74,North,0,0.0,0.0,68,0.00,,,0.00,WUHU216HW,2013-10-16 03:59:00,
2013-10-15 21:01:00,51.5,41.3,29.74,North,0,0.0,0.0,68,0.00,,,0.00,WUHU216HW,2013-10-16 04:01:00,
2013-10-15 21:02:00,51.5,41.3,29.73,North,0,0.0,0.0,68,0.00,,,0.00,WUHU216HW,2013-10-16 04:02:00,
2013-10-15 21:07:00,51.5,41.3,29.73,North,0,0.0,0.0,68,0.00,,,0.00,WUHU216HW,2013-10-16 04:07:00,
2013-10-15 21:12:00,51.5,41.3,29.73,North,0,0.0,0.0,68,0.00,,,0.00,WUHU216HW,2013-10-16 04:12:00,
2013-10-15 21:17:00,51.3,41.1,29.73,North,0,0.0,0.0,68,0.00,,,0.00,WUHU216HW,2013-10-16 04:17:00,
2013-10-15 21:22:00,51.1,41.3,29.74,North,0,0.0,0.0,69,0.00,,,0.00,WUHU216HW,2013-10-16 04:22:00,
2013-10-15 21:27:00,50.9,41.2,29.74,North,0,0.0,0.0,69,0.00,,,0.00,WUHU216HW,2013-10-16 04:27:00,
2013-10-15 21:32:00,50.9,41.2,29.74,North,0,0.0,0.0,69,0.00,,,0.00,WUHU216HW,2013-10-16 04:32:00,
2013-10-15 21:37:00,50.8,41.1,29.74,North,0,0.0,0.0,69,0.00,,,0.00,WUHU216HW,2013-10-16 04:37:00,
2013-10-15 21:42:00,50.4,40.7,29.74,NNE,23,0.0,0.0,69,0.00,,,0.00,WUHU216HW,2013-10-16 04:42:00,
2013-10-15 21:47:00,50.4,40.7,29.74,NNE,23,0.0,0.0,69,0.00,,,0.00,WUHU216HW,2013-10-16 04:47:00,
2013-10-15 21:52:00,50.0,40.7,29.74,NNE,23,0.0,0.0,70,0.00,,,0.00,WUHU216HW,2013-10-16 04:52:00,
2013-10-15 21:57:00,50.0,40.7,29.74,NNE,23,0.0,0.0,70,0.00,,,0.00,WUHU216HW,2013-10-16 04:57:00,
2013-10-15 22:02:00,49.9,40.5,29.74,NNE,23,0.0,0.0,70,0.00,,,0.00,WUHU216HW,2013-10-16 05:02:00,
2013-10-15 22:07:00,49.7,40.7,29.74,NNE,23,0.0,0.0,71,0.00,,,0.00,WUHU216HW,2013-10-16 05:07:00,
2013-10-15 22:11:00,49.7,40.7,29.74,NNE,23,0.0,0.0,71,0.00,,,0.00,WUHU216HW,2013-10-16 05:11:00,
2013-10-15 22:17:00,49.3,40.3,29.74,NNE,23,0.0,0.0,71,0.00,,,0.00,WUHU216HW,2013-10-16 05:17:00,
2013-10-15 22:22:00,49.1,40.2,29.74,NNE,23,0.0,0.0,71,0.00,,,0.00,WUHU216HW,2013-10-16 05:22:00,
2013-10-15 22:27:00,49.0,40.3,29.74,NNE,23,0.0,0.0,72,0.00,,,0.00,WUHU216HW,2013-10-16 05:27:00,
2013-10-15 22:31:00,48.8,40.2,29.74,NNE,23,0.0,0.0,72,0.00,,,0.00,WUHU216HW,2013-10-16 05:31:00,
2013-10-15 22:36:00,48.6,40.0,29.74,NNE,23,0.0,0.0,72,0.00,,,0.00,WUHU216HW,2013-10-16 05:36:00,
2013-10-15 22:41:00,48.4,39.8,29.74,NNE,23,0.0,0.0,72,0.00,,,0.00,WUHU216HW,2013-10-16 05:41:00,
2013-10-15 22:47:00,48.2,39.6,29.74,NNE,23,0.0,0.0,72,0.00,,,0.00,WUHU216HW,2013-10-16 05:47:00,
2013-10-15 22:52:00,48.1,39.4,29.74,NNE,23,0.0,0.0,72,0.00,,,0.00,WUHU216HW,2013-10-16 05:52:00,
2013-10-15 22:57:00,47.9,39.6,29.74,NNE,23,0.0,0.0,73,0.00,,,0.00,WUHU216HW,2013-10-16 05:57:00,
2013-10-15 23:02:00,47.9,39.6,29.74,NNE,23,0.0,0.0,73,0.00,,,0.00,WUHU216HW,2013-10-16 06:02:00,
2013-10-15 23:07:00,47.5,39.2,29.74,NNE,23,0.0,0.0,73,0.00,,,0.00,WUHU216HW,2013-10-16 06:07:00,
2013-10-15 23:12:00,47.3,39.1,29.74,NNE,23,0.0,0.0,73,0.00,,,0.00,WUHU216HW,2013-10-16 06:12:00,
2013-10-15 23:17:00,47.2,39.2,29.74,NNE,23,0.0,0.0,74,0.00,,,0.00,WUHU216HW,2013-10-16 06:17:00,
2013-10-15 23:22:00,47.2,39.2,29.74,NNE,23,0.0,0.0,74,0.00,,,0.00,WUHU216HW,2013-10-16 06:22:00,
2013-10-15 23:27:00,47.0,39.2,29.74,NNE,23,0.0,0.0,74,0.00,,,0.00,WUHU216HW,2013-10-16 06:27:00,
2013-10-15 23:32:00,46.8,39.3,29.74,NNE,23,0.0,0.0,75,0.00,,,0.00,WUHU216HW,2013-10-16 06:32:00,
2013-10-15 23:36:00,46.6,39.2,29.74,NNE,23,0.0,0.0,75,0.00,,,0.00,WUHU216HW,2013-10-16 06:36:00,
2013-10-15 23:42:00,46.4,39.0,29.74,NNE,23,0.0,0.0,75,0.00,,,0.00,WUHU216HW,2013-10-16 06:42:00,
2013-10-15 23:47:00,46.4,39.0,29.75,NNE,23,0.0,0.0,75,0.00,,,0.00,WUHU216HW,2013-10-16 06:47:00,
2013-10-15 23:51:00,46.4,39.3,29.74,NNE,23,0.0,0.0,76,0.00,,,0.00,WUHU216HW,2013-10-16 06:51:00,
2013-10-15 23:57:00,46.3,39.2,29.75,NNE,23,0.0,0.0,76,0.00,,,0.00,WUHU216HW,2013-10-16 06:57:00,